Time;durP1;ratioP1;P1;durP2;ratioP2;P2;SDS_P1;SDS_P2;PMS_P1;PMS_P2;Temp;Humidity;BMP_temperature;BMP_pressure;BME280_temperature;BME280_humidity;BME280_pressure;Samples;Min_cycle;Max_cycle;Signal;HPM_P1;HPM_P2
2022/06/14 00:00:56;;;;;;;4.18;1.88;;;;;;;11.29;70.94;101689.53;4982225;28;20025;-69
2022/06/14 00:03:31;;;;;;;5.40;1.80;;;;;;;11.35;70.55;101689.03;5013801;28;20140;-68
2022/06/14 00:05:57;;;;;;;4.68;1.50;;;;;;;11.00;72.10;101688.16;4987855;28;20063;-67
2022/06/14 00:08:25;;;;;;;6.97;1.65;;;;;;;10.89;72.75;101688.13;4956916;28;20084;-67
2022/06/14 00:10:51;;;;;;;2.70;1.60;;;;;;;10.87;73.05;101681.25;4957875;28;20009;-69
2022/06/14 00:13:16;;;;;;;3.28;1.67;;;;;;;11.00;72.49;101690.78;4959612;28;20759;-67
2022/06/14 00:15:42;;;;;;;6.53;1.88;;;;;;;11.03;72.06;101696.81;4980682;28;20116;-67
2022/06/14 00:18:08;;;;;;;2.28;1.40;;;;;;;11.03;71.90;101694.16;4976387;28;20017;-67
2022/06/14 00:20:33;;;;;;;2.88;1.90;;;;;;;10.86;72.33;101685.72;4957957;27;20694;-68
2022/06/14 00:22:59;;;;;;;3.13;1.63;;;;;;;10.80;72.39;101688.78;4976489;28;20043;-68
2022/06/14 00:25:27;;;;;;;3.17;1.58;;;;;;;10.83;72.31;101696.53;4990443;27;20101;-67
2022/06/14 00:27:52;;;;;;;4.43;1.45;;;;;;;10.76;72.90;101689.97;4977349;28;20123;-66
2022/06/14 00:30:19;;;;;;;3.20;1.80;;;;;;;10.63;73.45;101693.56;4975531;28;20446;-68
2022/06/14 00:32:44;;;;;;;2.40;1.50;;;;;;;10.50;73.70;101684.81;4977576;28;20791;-67
2022/06/14 00:35:09;;;;;;;3.15;1.63;;;;;;;10.45;74.35;101687.00;4997631;28;20105;-67
2022/06/14 00:37:35;;;;;;;5.28;1.65;;;;;;;10.42;74.15;101695.13;4975135;28;20122;-67
2022/06/14 00:40:00;;;;;;;4.13;1.67;;;;;;;10.38;74.67;101688.38;4974014;28;20170;-68
2022/06/14 00:42:26;;;;;;;3.53;1.65;;;;;;;10.37;74.87;101678.75;4974929;28;20857;-67
2022/06/14 00:45:11;;;;;;;4.57;1.77;;;;;;;10.33;74.90;101686.03;4943561;28;20804;-67
2022/06/14 00:47:56;;;;;;;4.30;1.80;;;;;;;10.31;74.59;101680.84;5012450;27;20767;-67
2022/06/14 00:50:49;;;;;;;5.90;1.70;;;;;;;10.30;74.88;101692.38;4992507;28;20035;-68
2022/06/14 00:53:24;;;;;;;3.30;1.65;;;;;;;10.20;74.93;101691.38;4990420;28;20025;-67
2022/06/14 00:55:55;;;;;;;3.40;1.95;;;;;;;10.10;75.57;101685.06;4972671;28;20026;-67
2022/06/14 00:58:24;;;;;;;3.75;1.70;;;;;;;10.13;75.65;101690.13;4976831;28;20090;-67
2022/06/14 01:01:01;;;;;;;2.58;1.90;;;;;;;10.08;75.94;101692.25;4966960;28;21060;-67
2022/06/14 01:03:32;;;;;;;4.53;1.70;;;;;;;10.02;75.75;101688.25;4971786;28;20029;-68
2022/06/14 01:06:05;;;;;;;6.88;1.92;;;;;;;10.05;76.18;101688.03;4967704;28;20024;-68
2022/06/14 01:08:33;;;;;;;2.40;1.70;;;;;;;9.99;76.66;101683.19;4976931;28;21021;-68
2022/06/14 01:10:58;;;;;;;2.92;1.90;;;;;;;10.05;76.31;101681.91;4994141;28;20464;-67
2022/06/14 01:13:24;;;;;;;2.15;1.50;;;;;;;10.01;76.42;101675.13;4975578;28;20918;-68
2022/06/14 01:15:49;;;;;;;3.33;1.70;;;;;;;9.90;77.17;101683.81;4971377;28;20037;-67
2022/06/14 01:18:15;;;;;;;2.13;1.60;;;;;;;9.94;77.11;101674.72;4976526;28;20104;-67
2022/06/14 01:20:41;;;;;;;1.77;1.60;;;;;;;9.89;77.61;101671.59;4974598;28;20013;-68
2022/06/14 01:23:08;;;;;;;4.95;1.90;;;;;;;9.90;77.48;101662.69;4976613;28;20076;-67
2022/06/14 01:25:38;;;;;;;3.97;1.45;;;;;;;9.86;77.68;101670.00;4973922;27;20465;-68
2022/06/14 01:28:04;;;;;;;3.05;1.55;;;;;;;9.79;77.61;101666.94;4975479;28;20029;-68
2022/06/14 01:30:32;;;;;;;2.95;1.70;;;;;;;9.77;77.82;101663.56;4973563;28;20025;-66
2022/06/14 01:33:07;;;;;;;3.10;1.58;;;;;;;9.82;77.49;101668.53;4990925;28;20025;-66
2022/06/14 01:35:35;;;;;;;2.08;1.98;;;;;;;9.82;77.26;101660.59;4982636;27;20037;-67
2022/06/14 01:38:01;;;;;;;3.17;1.50;;;;;;;9.74;77.69;101652.34;4985368;28;20022;-68
2022/06/14 01:40:53;;;;;;;4.30;1.88;;;;;;;9.67;77.79;101666.97;4957783;28;20306;-67
2022/06/14 01:43:40;;;;;;;5.35;1.70;;;;;;;9.88;77.22;101659.31;4976642;28;20709;-67
2022/06/14 01:46:30;;;;;;;3.35;1.55;;;;;;;10.17;75.71;101653.72;4976051;28;20251;-68
2022/06/14 01:52:37;;;;;;;6.53;1.60;;;;;;;10.36;74.73;101658.53;4980148;28;20072;-67
2022/06/14 01:55:18;;;;;;;2.20;1.73;;;;;;;10.31;74.59;101657.03;4993489;28;20790;-67
2022/06/14 01:58:08;;;;;;;4.25;1.92;;;;;;;10.36;74.42;101648.78;5007654;28;20165;-67
2022/06/14 02:00:38;;;;;;;3.97;1.65;;;;;;;10.04;75.12;101659.03;5010748;28;20017;-67
2022/06/14 02:06:09;;;;;;;2.45;1.92;;;;;;;9.68;76.95;101650.16;4990007;28;20082;-67
2022/06/14 02:08:37;;;;;;;4.47;1.90;;;;;;;9.60;77.66;101662.13;5008070;28;20364;-68
2022/06/14 02:11:11;;;;;;;3.22;2.10;;;;;;;9.54;77.20;101667.00;4991672;28;20001;-68
2022/06/14 02:14:00;;;;;;;2.67;1.70;;;;;;;9.70;76.94;101653.53;4990084;28;20017;-67
2022/06/14 02:16:41;;;;;;;1.65;1.50;;;;;;;9.74;76.40;101652.34;4989427;28;20610;-67
2022/06/14 02:19:10;;;;;;;2.08;1.83;;;;;;;9.84;76.00;101656.03;4976422;28;20021;-66
2022/06/14 02:21:38;;;;;;;4.95;1.80;;;;;;;9.85;76.21;101665.66;4975333;28;20509;-67
2022/06/14 02:24:09;;;;;;;2.85;1.95;;;;;;;9.89;75.15;101656.56;4992594;28;20499;-67
2022/06/14 02:26:40;;;;;;;3.50;1.85;;;;;;;9.61;76.47;101661.16;5003439;28;20611;-66
2022/06/14 02:29:10;;;;;;;2.17;1.70;;;;;;;9.54;76.98;101659.88;4976704;28;20022;-67
2022/06/14 02:31:41;;;;;;;5.97;1.98;;;;;;;9.49;76.93;101653.25;4994151;28;20674;-67
2022/06/14 02:34:17;;;;;;;4.57;1.73;;;;;;;9.48;77.39;101656.84;4966060;28;20033;-67
2022/06/14 02:36:51;;;;;;;1.88;1.75;;;;;;;9.35;77.75;101651.56;4988244;28;20841;-67
2022/06/14 02:39:25;;;;;;;2.45;1.85;;;;;;;9.37;77.09;101647.03;4974381;28;20017;-68
2022/06/14 02:42:05;;;;;;;3.90;2.10;;;;;;;9.30;77.38;101653.69;4968978;28;20057;-67
2022/06/14 02:44:30;;;;;;;2.28;1.77;;;;;;;9.26;77.32;101650.41;4967053;28;20479;-67
2022/06/14 02:47:15;;;;;;;4.05;1.80;;;;;;;9.20;77.90;101651.66;4962418;28;20014;-67
2022/06/14 02:49:45;;;;;;;3.88;2.00;;;;;;;9.14;77.81;101633.63;4939414;28;20014;-67
2022/06/14 02:52:27;;;;;;;3.65;2.00;;;;;;;9.16;77.87;101646.72;4946656;28;20015;-67
2022/06/14 02:55:03;;;;;;;2.88;1.83;;;;;;;9.05;78.41;101644.78;4962644;28;20131;-68
2022/06/14 02:57:38;;;;;;;1.95;1.83;;;;;;;9.04;78.50;101643.09;4962352;28;20065;-67
2022/06/14 03:00:13;;;;;;;3.60;1.95;;;;;;;9.17;77.96;101645.78;4965677;28;20011;-67
2022/06/14 03:02:50;;;;;;;3.65;2.00;;;;;;;9.38;77.03;101646.91;4966260;28;20817;-68
2022/06/14 03:05:18;;;;;;;4.78;2.10;;;;;;;9.47;76.10;101649.88;4936218;28;20034;-67
2022/06/14 03:07:48;;;;;;;2.33;1.90;;;;;;;9.17;77.27;101643.13;4966406;28;20022;-67
2022/06/14 03:10:14;;;;;;;2.88;2.00;;;;;;;9.14;77.00;101641.53;4968265;28;20019;-68
2022/06/14 03:12:59;;;;;;;3.45;1.88;;;;;;;8.98;77.79;101651.44;4970160;28;20105;-67
2022/06/14 03:15:33;;;;;;;2.15;1.95;;;;;;;8.91;78.18;101643.09;4964801;28;20023;-66
2022/06/14 03:18:09;;;;;;;2.13;1.92;;;;;;;8.89;78.39;101648.47;4962650;28;20022;-67
2022/06/14 03:20:45;;;;;;;5.78;2.20;;;;;;;8.86;78.99;101640.78;4941895;28;20022;-66
2022/06/14 03:23:32;;;;;;;2.30;2.10;;;;;;;8.78;78.68;101632.53;4954636;28;20073;-68
2022/06/14 03:26:05;;;;;;;3.60;2.28;;;;;;;8.76;78.38;101637.06;4952862;28;20027;-68
2022/06/14 03:28:44;;;;;;;2.22;2.13;;;;;;;8.69;79.32;101628.72;4956068;28;20023;-67
2022/06/14 03:31:14;;;;;;;2.63;1.85;;;;;;;8.72;79.08;101627.66;4970921;28;20702;-67
2022/06/14 03:33:48;;;;;;;2.10;1.90;;;;;;;8.64;79.22;101635.25;4980512;28;20935;-67
2022/06/14 03:36:14;;;;;;;3.22;1.80;;;;;;;8.58;79.79;101642.59;4943398;28;20206;-70
2022/06/14 03:38:46;;;;;;;2.20;2.10;;;;;;;8.66;79.51;101638.59;4949631;28;20175;-68
2022/06/14 03:41:13;;;;;;;3.75;2.20;;;;;;;8.65;79.40;101647.50;4951459;28;20015;-67
2022/06/14 03:43:39;;;;;;;2.22;2.03;;;;;;;8.66;79.80;101634.19;4961365;28;20341;-68
2022/06/14 03:46:13;;;;;;;2.30;2.10;;;;;;;8.90;78.81;101641.41;4962344;28;21113;-67
2022/06/14 03:48:41;;;;;;;3.38;1.98;;;;;;;9.21;77.41;101645.44;4996277;28;20069;-68
2022/06/14 03:51:40;;;;;;;4.15;2.30;;;;;;;9.03;77.53;101652.00;4973728;28;20018;-67
2022/06/14 03:54:09;;;;;;;2.20;2.03;;;;;;;8.89;78.67;101640.56;4992719;28;20056;-68
2022/06/14 03:57:04;;;;;;;2.17;2.08;;;;;;;8.77;79.14;101641.38;4990090;28;20109;-67
2022/06/14 04:00:04;;;;;;;2.38;2.10;;;;;;;8.76;79.43;101648.47;4986443;28;20026;-66
2022/06/14 04:02:54;;;;;;;2.30;2.20;;;;;;;8.73;79.36;101647.84;4987460;28;20067;-68
2022/06/14 04:06:14;;;;;;;3.30;2.40;;;;;;;8.78;79.39;101643.06;4991276;27;20037;-68
2022/06/14 04:09:04;;;;;;;2.30;2.10;;;;;;;8.84;79.72;101642.69;4899220;28;20022;-67
2022/06/14 04:11:39;;;;;;;4.38;2.45;;;;;;;8.79;79.21;101638.66;5001088;28;20913;-66
2022/06/14 04:14:36;;;;;;;2.45;2.25;;;;;;;8.76;79.43;101634.44;4993955;28;20289;-67
2022/06/14 04:17:43;;;;;;;2.47;2.30;;;;;;;8.77;79.68;101631.69;4989627;28;20937;-68
2022/06/14 04:20:09;;;;;;;4.00;2.28;;;;;;;8.77;79.52;101628.19;4922148;28;20092;-67
2022/06/14 04:22:34;;;;;;;2.33;2.10;;;;;;;8.84;79.72;101632.13;5012678;28;20166;-66
2022/06/14 04:25:18;;;;;;;2.28;2.10;;;;;;;8.87;79.44;101629.28;5011766;28;20046;-67
2022/06/14 04:27:52;;;;;;;3.53;2.45;;;;;;;8.87;79.68;101631.91;4996188;28;20437;-67
2022/06/14 04:30:29;;;;;;;2.85;2.35;;;;;;;8.96;79.92;101635.72;4993102;28;20025;-65
2022/06/14 04:33:14;;;;;;;2.78;2.10;;;;;;;9.16;79.62;101642.25;4995601;28;20459;-67
2022/06/14 04:35:50;;;;;;;;;;;;;;;9.12;79.49;101643.41;4995118;27;20812;-67
2022/06/14 04:38:28;;;;;;;2.30;2.10;;;;;;;9.22;79.32;101641.88;4993860;28;19900;-67
2022/06/14 04:41:01;;;;;;;2.80;2.10;;;;;;;9.27;79.82;101645.00;4977893;28;20024;-68
2022/06/14 04:43:40;;;;;;;2.53;2.33;;;;;;;9.28;79.19;101640.59;4992899;28;20922;-68
2022/06/14 04:46:09;;;;;;;3.75;2.10;;;;;;;9.45;78.85;101642.91;4978307;27;20021;-67
2022/06/14 04:49:04;;;;;;;3.58;2.20;;;;;;;9.67;78.24;101640.53;4962331;28;20013;-68
2022/06/14 04:51:35;;;;;;;2.20;2.00;;;;;;;9.89;77.74;101640.69;4991915;27;20025;-67
2022/06/14 04:54:41;;;;;;;2.72;2.30;;;;;;;9.93;77.78;101641.34;5012656;28;20961;-66
2022/06/14 04:57:27;;;;;;;2.00;1.90;;;;;;;9.95;77.83;101649.97;4987228;28;21072;-67
2022/06/14 05:00:19;;;;;;;2.25;1.90;;;;;;;10.16;78.38;101646.75;4991869;28;20541;-67
2022/06/14 05:03:00;;;;;;;2.50;2.13;;;;;;;10.23;78.20;101638.25;4981764;28;20857;-67
2022/06/14 05:05:33;;;;;;;6.18;2.10;;;;;;;10.33;78.21;101641.06;4963952;27;20681;-66
2022/06/14 05:08:15;;;;;;;5.50;2.38;;;;;;;10.46;78.04;101644.53;4975473;28;20266;-68
2022/06/14 05:11:04;;;;;;;4.88;2.30;;;;;;;10.72;77.41;101654.13;4979798;28;20021;-65
2022/06/14 05:13:44;;;;;;;2.05;1.95;;;;;;;10.77;77.26;101646.66;4999517;28;20013;-67
2022/06/14 05:16:19;;;;;;;2.75;2.30;;;;;;;10.91;76.92;101642.97;4997536;28;20120;-66
2022/06/14 05:19:00;;;;;;;4.15;2.28;;;;;;;10.94;77.17;101646.25;4992321;28;20021;-67
2022/06/14 05:21:32;;;;;;;3.00;2.42;;;;;;;11.09;77.06;101646.88;4992253;28;20021;-67
2022/06/14 05:23:58;;;;;;;2.67;2.22;;;;;;;11.06;77.18;101651.56;4978204;28;20037;-67
2022/06/14 05:26:29;;;;;;;6.43;2.30;;;;;;;11.16;76.54;101658.69;4985656;28;20045;-68
2022/06/14 05:29:06;;;;;;;7.95;2.80;;;;;;;11.22;76.05;101652.06;5010682;28;20760;-66
2022/06/14 05:31:52;;;;;;;4.70;2.30;;;;;;;11.40;75.86;101659.56;4988445;28;20162;-67
2022/06/14 05:35:06;;;;;;;5.57;2.22;;;;;;;11.51;75.05;101659.56;4997520;28;20022;-66
2022/06/14 05:37:46;;;;;;;4.20;2.25;;;;;;;11.61;74.21;101663.16;4913322;28;20493;-67
2022/06/14 05:40:24;;;;;;;5.40;2.65;;;;;;;11.71;74.46;101652.69;4965968;28;20078;-66
2022/06/14 05:43:16;;;;;;;4.25;2.25;;;;;;;11.83;74.44;101650.84;4975174;28;20815;-67
2022/06/14 05:45:44;;;;;;;6.00;2.60;;;;;;;12.05;73.56;101649.16;4989921;27;20543;-66
2022/06/14 05:48:14;;;;;;;4.38;2.30;;;;;;;12.17;73.03;101643.72;4973699;28;20733;-68
2022/06/14 05:50:42;;;;;;;5.90;2.80;;;;;;;12.31;72.89;101650.53;4973717;28;20260;-66
2022/06/14 05:53:38;;;;;;;5.65;2.67;;;;;;;12.40;72.88;101643.63;4974289;28;20170;-68
2022/06/14 05:56:12;;;;;;;9.57;2.72;;;;;;;12.32;71.88;101644.28;5007617;28;20507;-68
2022/06/14 05:58:54;;;;;;;3.65;2.65;;;;;;;12.48;71.84;101650.94;4994819;28;20537;-67
2022/06/14 06:01:24;;;;;;;7.65;3.47;;;;;;;12.53;71.64;101644.28;4974766;28;20021;-67
2022/06/14 06:04:01;;;;;;;5.82;3.15;;;;;;;12.56;70.14;101653.81;4978795;28;20242;-67
2022/06/14 06:06:48;;;;;;;8.07;3.20;;;;;;;12.60;70.30;101649.94;5005972;27;20056;-67
2022/06/14 06:09:20;;;;;;;7.28;3.35;;;;;;;12.76;70.29;101654.84;4990964;28;20059;-66
2022/06/14 06:11:52;;;;;;;4.97;3.38;;;;;;;12.60;70.46;101654.41;4974471;28;20312;-69
2022/06/14 06:14:35;;;;;;;5.78;3.42;;;;;;;12.67;71.09;101645.78;4974874;28;20034;-67
2022/06/14 06:17:09;;;;;;;7.10;3.40;;;;;;;12.80;70.86;101650.91;4971614;28;20551;-67
2022/06/14 06:19:36;;;;;;;;;;;;;;;12.86;69.65;101655.72;4972094;28;20062;-67
2022/06/14 06:22:32;;;;;;;6.95;3.50;;;;;;;12.93;69.96;101655.19;4991589;28;19904;-68
2022/06/14 06:25:06;;;;;;;6.00;3.40;;;;;;;13.03;69.90;101653.47;4991931;28;20221;-67
2022/06/14 06:27:37;;;;;;;5.43;3.42;;;;;;;13.13;69.56;101657.03;4971397;28;20073;-68
2022/06/14 06:30:15;;;;;;;5.90;3.53;;;;;;;13.25;67.73;101656.94;4972473;28;20070;-68
2022/06/14 06:32:41;;;;;;;7.30;3.38;;;;;;;13.30;66.98;101663.53;4973512;28;20748;-67
2022/06/14 06:35:06;;;;;;;7.75;3.70;;;;;;;13.27;66.46;101663.81;4985284;28;20066;-68
2022/06/14 06:37:43;;;;;;;6.32;3.72;;;;;;;13.35;66.96;101671.16;4982292;28;20462;-67
2022/06/14 06:40:24;;;;;;;8.35;3.50;;;;;;;13.47;67.48;101669.25;4989881;28;20031;-68
2022/06/14 06:43:05;;;;;;;9.60;3.80;;;;;;;13.58;67.82;101674.50;4993344;28;20033;-67
2022/06/14 06:45:32;;;;;;;6.40;4.05;;;;;;;13.68;67.46;101678.03;4973898;27;20423;-67
2022/06/14 06:47:57;;;;;;;7.90;3.63;;;;;;;13.73;66.72;101675.81;4995282;28;19994;-67
2022/06/14 06:50:25;;;;;;;8.98;4.05;;;;;;;13.81;65.95;101676.94;4991992;28;20185;-68
2022/06/14 06:53:00;;;;;;;9.63;4.00;;;;;;;13.96;66.22;101672.94;4971590;28;20122;-68
2022/06/14 06:55:53;;;;;;;6.30;3.83;;;;;;;14.05;66.57;101657.97;4971450;27;20018;-68
2022/06/14 06:58:27;;;;;;;5.95;3.75;;;;;;;14.13;64.67;101671.44;5009256;28;20631;-68
2022/06/14 07:00:58;;;;;;;8.00;4.15;;;;;;;14.23;63.66;101671.44;4977410;27;20126;-67
2022/06/14 07:03:36;;;;;;;7.35;4.28;;;;;;;14.31;63.58;101673.41;4994683;28;20949;-68
2022/06/14 07:06:02;;;;;;;9.15;4.90;;;;;;;14.24;62.90;101673.09;4977041;27;20106;-67
2022/06/14 07:08:37;;;;;;;8.05;4.93;;;;;;;14.09;63.87;101673.50;4977812;28;20783;-67
2022/06/14 07:11:03;;;;;;;7.90;4.80;;;;;;;14.27;65.42;101667.53;4977533;28;21061;-69
2022/06/14 07:13:54;;;;;;;12.05;5.53;;;;;;;14.26;63.62;101671.16;4991935;28;20017;-68
2022/06/14 07:16:24;;;;;;;11.32;5.40;;;;;;;14.38;63.17;101671.88;4972870;28;20022;-67
2022/06/14 07:19:32;;;;;;;13.90;6.05;;;;;;;14.50;62.92;101672.59;4993926;28;20247;-68
2022/06/14 07:22:03;;;;;;;9.13;5.10;;;;;;;14.67;62.95;101673.75;4992560;28;20025;-67
2022/06/14 07:24:49;;;;;;;13.05;5.20;;;;;;;14.75;61.86;101676.56;4978782;28;20090;-67
2022/06/14 07:27:16;;;;;;;11.25;5.18;;;;;;;14.81;61.88;101669.81;4988272;28;20268;-68
2022/06/14 07:30:12;;;;;;;10.63;4.85;;;;;;;15.03;62.56;101674.84;4980404;28;20542;-67
2022/06/14 07:32:46;;;;;;;8.38;4.75;;;;;;;15.13;62.04;101677.47;4986277;28;20432;-68
2022/06/14 07:35:12;;;;;;;12.38;5.30;;;;;;;15.19;61.69;101678.72;4985496;28;20010;-68
2022/06/14 07:37:43;;;;;;;10.90;5.00;;;;;;;15.37;62.19;101674.31;4966774;28;20082;-67
2022/06/14 07:40:20;;;;;;;9.40;5.20;;;;;;;15.46;61.15;101677.94;4969851;28;20017;-67
2022/06/14 07:43:16;;;;;;;6.38;4.38;;;;;;;15.58;60.41;101673.25;4978580;28;21792;-69
2022/06/14 07:45:51;;;;;;;8.77;4.82;;;;;;;15.66;59.72;101685.88;4972779;27;20048;-67
2022/06/14 07:48:35;;;;;;;10.52;5.13;;;;;;;15.59;59.17;101680.25;4974771;28;20025;-67
2022/06/14 07:51:09;;;;;;;8.40;4.75;;;;;;;15.51;58.64;101681.00;4992758;28;20053;-68
2022/06/14 07:53:34;;;;;;;11.82;4.95;;;;;;;15.64;61.88;101670.00;4976532;28;20082;-68
2022/06/14 07:56:06;;;;;;;10.63;4.43;;;;;;;15.65;58.88;101671.66;5008919;27;20033;-69
2022/06/14 07:58:31;;;;;;;5.95;4.43;;;;;;;15.87;59.88;101661.63;4975499;28;20355;-68
2022/06/14 08:01:09;;;;;;;9.80;4.93;;;;;;;15.96;56.93;101668.72;5011357;27;20116;-67
2022/06/14 08:03:40;;;;;;;8.18;4.07;;;;;;;16.07;56.49;101663.19;4974825;28;20033;-69
2022/06/14 08:06:12;;;;;;;13.32;5.40;;;;;;;16.17;56.66;101668.47;5007773;27;20208;-68
2022/06/14 08:08:39;;;;;;;9.32;4.13;;;;;;;16.35;58.92;101660.47;4973564;28;20217;-68
2022/06/14 08:11:08;;;;;;;10.82;4.38;;;;;;;16.53;57.70;101673.00;4995257;28;20013;-68
2022/06/14 08:14:04;;;;;;;8.90;4.60;;;;;;;16.68;60.37;101660.75;4977944;28;20045;-69
2022/06/14 08:16:29;;;;;;;9.57;4.43;;;;;;;16.60;55.76;101655.34;4985339;28;20678;-69
2022/06/14 08:19:02;;;;;;;12.50;4.60;;;;;;;16.81;58.61;101653.19;4957188;28;20171;-68
2022/06/14 08:21:35;;;;;;;8.27;4.30;;;;;;;17.09;58.23;101657.56;4957853;28;20116;-68
2022/06/14 08:24:00;;;;;;;9.73;4.30;;;;;;;17.14;53.58;101655.28;4940492;28;20044;-67
2022/06/14 08:26:56;;;;;;;10.23;4.47;;;;;;;17.19;54.98;101652.13;4999040;27;20021;-69
2022/06/14 08:29:46;;;;;;;10.27;4.63;;;;;;;17.35;54.11;101652.22;5013496;28;20890;-69
2022/06/14 08:32:44;;;;;;;6.65;3.72;;;;;;;17.55;51.68;101647.44;5000362;28;20046;-68
2022/06/14 08:35:19;;;;;;;9.27;4.05;;;;;;;17.46;51.87;101643.09;4995601;27;20052;-67
2022/06/14 08:37:51;;;;;;;10.60;4.20;;;;;;;17.48;50.53;101639.22;4977686;28;20670;-67
2022/06/14 08:41:08;;;;;;;8.05;3.80;;;;;;;17.45;48.94;101642.22;4974129;28;20017;-68
2022/06/14 08:43:43;;;;;;;8.68;4.22;;;;;;;17.65;50.90;101639.31;4939591;28;20037;-68
2022/06/14 08:46:26;;;;;;;7.38;3.83;;;;;;;17.86;51.53;101628.16;4969834;27;20013;-67
2022/06/14 08:49:08;;;;;;;9.20;3.90;;;;;;;17.89;49.04;101624.31;4974696;28;20021;-68
2022/06/14 08:51:36;;;;;;;9.90;3.90;;;;;;;17.86;49.07;101629.00;4970185;28;20014;-68
2022/06/14 08:54:32;;;;;;;6.93;3.17;;;;;;;18.01;49.50;101625.72;4955015;28;20010;-68
2022/06/14 08:57:24;;;;;;;7.28;3.10;;;;;;;18.15;48.75;101627.75;4985765;28;20490;-68
2022/06/14 08:59:52;;;;;;;7.47;2.55;;;;;;;18.60;50.49;101624.75;4992465;28;20017;-69
2022/06/14 09:02:26;;;;;;;7.03;2.92;;;;;;;18.78;48.16;101619.22;5007657;28;20021;-68
2022/06/14 09:04:58;;;;;;;5.00;2.88;;;;;;;18.78;46.62;101620.06;5000984;28;20335;-68
2022/06/14 09:07:48;;;;;;;5.45;2.85;;;;;;;18.72;46.18;101612.69;4986997;28;20032;-68
2022/06/14 09:10:19;;;;;;;4.90;2.90;;;;;;;18.59;44.51;101618.56;5007779;28;20112;-67
2022/06/14 09:12:57;;;;;;;6.93;2.85;;;;;;;18.98;44.59;101606.31;5010072;28;20114;-68
2022/06/14 09:16:00;;;;;;;5.05;2.90;;;;;;;18.87;43.83;101602.97;4987963;27;20025;-68
2022/06/14 09:18:37;;;;;;;12.15;5.90;;;;;;;19.40;46.32;101599.78;5012982;27;20017;-68
2022/06/14 09:21:21;;;;;;;9.40;4.05;;;;;;;19.51;44.06;101599.41;4973985;28;20028;-68
2022/06/14 09:24:25;;;;;;;10.38;3.70;;;;;;;19.83;45.16;101592.22;4975525;28;20041;-67
2022/06/14 09:27:09;;;;;;;6.13;3.30;;;;;;;20.05;46.51;101592.41;4964113;28;20029;-68
2022/06/14 09:29:54;;;;;;;4.57;3.05;;;;;;;20.20;44.85;101595.19;4987899;28;20022;-68
2022/06/14 09:32:32;;;;;;;11.45;3.30;;;;;;;20.43;47.70;101584.38;4981998;28;20021;-68
2022/06/14 09:35:19;;;;;;;10.05;3.17;;;;;;;20.78;43.68;101592.00;4989361;28;20040;-68
2022/06/14 09:38:02;;;;;;;7.82;3.72;;;;;;;20.98;44.18;101589.59;5013821;27;20013;-68
2022/06/14 09:40:32;;;;;;;5.05;3.40;;;;;;;20.80;46.75;101590.81;5011965;28;20049;-69
2022/06/14 09:43:09;;;;;;;5.55;3.28;;;;;;;21.28;44.39;101595.84;4974647;28;21023;-68
2022/06/14 09:45:59;;;;;;;8.48;3.75;;;;;;;20.97;41.15;101596.00;5006224;27;20045;-68
2022/06/14 09:48:43;;;;;;;7.35;3.28;;;;;;;21.09;41.61;101589.16;5008280;27;20506;-68
2022/06/14 09:51:36;;;;;;;7.70;2.80;;;;;;;21.53;41.42;101590.16;4980061;28;20723;-68
2022/06/14 09:54:23;;;;;;;6.47;3.10;;;;;;;21.48;43.75;101596.09;4990206;28;20128;-68
2022/06/14 09:57:03;;;;;;;6.18;3.22;;;;;;;22.01;40.28;101595.03;5001005;27;20815;-69
2022/06/14 09:59:51;;;;;;;7.15;3.40;;;;;;;22.16;41.13;101595.81;5007047;28;20427;-68
2022/06/14 10:02:33;;;;;;;6.32;2.97;;;;;;;22.18;44.23;101592.91;4991567;28;20159;-69
2022/06/14 10:05:23;;;;;;;7.60;3.03;;;;;;;22.46;40.04;101595.69;4978493;28;20025;-68
2022/06/14 10:07:52;;;;;;;6.25;2.80;;;;;;;22.95;38.57;101589.38;4982241;28;20021;-67
2022/06/14 10:10:32;;;;;;;3.92;2.38;;;;;;;23.05;37.78;101589.03;5010783;28;20094;-68
2022/06/14 10:13:10;;;;;;;6.32;2.40;;;;;;;23.40;36.42;101596.31;4990809;28;20021;-68
2022/06/14 10:15:46;;;;;;;7.03;2.40;;;;;;;23.44;36.36;101592.97;4990412;27;20418;-68
2022/06/14 10:18:15;;;;;;;5.35;2.72;;;;;;;23.82;37.72;101588.97;4979358;28;20685;-69
2022/06/14 10:21:12;;;;;;;5.43;2.75;;;;;;;24.06;33.99;101578.63;4990646;28;20468;-69
2022/06/14 10:23:57;;;;;;;7.90;2.75;;;;;;;24.24;35.28;101578.84;4959600;28;20076;-69
2022/06/14 10:29:44;;;;;;;5.75;2.80;;;;;;;24.42;34.08;101571.97;5013509;27;20800;-68
2022/06/14 10:32:30;;;;;;;6.50;2.55;;;;;;;24.57;33.06;101575.28;4988739;28;20002;-67
2022/06/14 10:35:24;;;;;;;5.07;2.90;;;;;;;24.47;32.50;101574.91;4976388;28;20018;-69
2022/06/14 10:37:59;;;;;;;5.72;3.00;;;;;;;24.98;32.93;101571.50;4997367;28;20001;-68
2022/06/14 10:40:27;;;;;;;5.55;2.70;;;;;;;25.49;34.82;101575.28;5011230;28;20017;-68
2022/06/14 10:43:34;;;;;;;5.50;3.38;;;;;;;25.80;33.02;101578.25;4991622;28;20038;-68
2022/06/14 10:46:04;;;;;;;6.43;3.10;;;;;;;25.81;32.57;101560.94;4977629;28;20918;-69
2022/06/14 10:48:57;;;;;;;4.38;2.53;;;;;;;25.76;29.63;101558.03;4977120;28;20623;-69
2022/06/14 10:52:00;;;;;;;5.80;2.60;;;;;;;26.05;28.47;101560.16;4999410;28;20461;-68
2022/06/14 10:54:33;;;;;;;4.53;2.55;;;;;;;25.84;30.10;101552.38;4973579;28;20078;-68
2022/06/14 10:57:16;;;;;;;6.18;2.63;;;;;;;26.39;29.80;101549.03;4989825;28;20021;-69
2022/06/14 11:00:03;;;;;;;4.18;2.33;;;;;;;26.40;28.60;101545.28;4996708;28;20780;-69
2022/06/14 11:03:01;;;;;;;3.95;2.17;;;;;;;25.88;30.66;101534.63;4983406;28;20009;-68
2022/06/14 11:05:58;;;;;;;6.15;2.88;;;;;;;25.23;33.74;101535.59;4993788;27;20029;-68
2022/06/14 11:08:45;;;;;;;5.60;2.00;;;;;;;25.03;33.58;101536.50;5013889;27;20894;-69
2022/06/14 11:11:25;;;;;;;2.88;2.10;;;;;;;25.24;33.31;101534.53;4992216;27;21276;-69
2022/06/14 11:13:57;;;;;;;5.45;2.20;;;;;;;26.34;32.19;101538.84;4987242;28;20472;-68
2022/06/14 11:17:00;;;;;;;2.80;1.98;;;;;;;27.18;30.25;101523.97;5009517;27;20017;-68
2022/06/14 11:19:29;;;;;;;5.53;2.55;;;;;;;27.31;27.93;101528.41;5011820;28;20013;-69
2022/06/14 11:21:59;;;;;;;6.15;2.47;;;;;;;26.80;28.92;101533.22;5023819;27;20029;-68
2022/06/14 11:24:50;;;;;;;5.10;2.85;;;;;;;26.81;29.55;101519.41;5012374;28;20036;-68
2022/06/14 11:27:46;;;;;;;4.10;2.35;;;;;;;27.10;30.05;101516.13;5001502;28;20734;-69
2022/06/14 11:30:13;;;;;;;4.55;1.88;;;;;;;27.54;31.70;101524.97;4997543;28;20787;-69
2022/06/14 11:32:51;;;;;;;4.43;2.58;;;;;;;27.17;28.42;101509.53;4992975;28;20133;-68
2022/06/14 11:35:24;;;;;;;3.58;2.35;;;;;;;27.64;28.86;101502.66;4979852;27;20014;-69
2022/06/14 11:37:52;;;;;;;6.20;3.63;;;;;;;27.92;26.70;101499.28;4994741;28;20385;-69
2022/06/14 11:40:29;;;;;;;4.93;2.53;;;;;;;28.07;27.75;101496.94;4996738;28;19998;-68
2022/06/14 11:43:11;;;;;;;5.47;2.42;;;;;;;28.07;29.67;101494.22;4979562;28;20029;-68
2022/06/14 11:45:46;;;;;;;3.83;2.70;;;;;;;28.65;26.64;101493.66;4982383;28;20037;-69
2022/06/14 11:48:26;;;;;;;3.65;2.38;;;;;;;28.52;25.63;101486.53;4991795;28;20120;-68
2022/06/14 11:51:17;;;;;;;3.05;1.83;;;;;;;28.84;27.87;101486.13;4994449;28;20076;-69
2022/06/14 11:53:48;;;;;;;5.15;2.75;;;;;;;28.89;30.07;101488.97;4992031;28;20017;-69
2022/06/14 11:56:53;;;;;;;6.35;2.63;;;;;;;29.22;26.32;101471.91;4985235;28;20297;-69
2022/06/14 11:59:30;;;;;;;6.60;2.40;;;;;;;28.88;28.45;101477.25;4986988;28;20030;-68
2022/06/14 12:02:14;;;;;;;4.18;2.30;;;;;;;29.00;25.79;101479.09;4991724;28;20025;-68
2022/06/14 12:05:00;;;;;;;5.57;2.50;;;;;;;28.21;25.83;101469.53;4993321;28;20049;-69
2022/06/14 12:07:32;;;;;;;4.78;3.20;;;;;;;28.74;29.57;101470.44;4977770;28;20125;-69
2022/06/14 12:10:32;;;;;;;4.82;3.00;;;;;;;29.26;28.27;101461.34;4992521;28;20358;-69
2022/06/14 12:13:11;;;;;;;3.55;2.35;;;;;;;29.04;26.77;101464.75;4973086;28;20054;-69
2022/06/14 12:16:12;;;;;;;7.90;2.42;;;;;;;28.52;28.84;101462.03;4989431;28;21228;-69
2022/06/14 12:18:38;;;;;;;5.95;2.25;;;;;;;28.66;27.72;101458.00;5001311;27;20057;-69
2022/06/14 12:21:38;;;;;;;3.15;2.00;;;;;;;29.27;27.11;101455.66;4988845;28;20776;-70
2022/06/14 12:24:13;;;;;;;3.72;2.20;;;;;;;28.91;26.19;101451.41;4956619;28;20085;-70
2022/06/14 12:27:08;;;;;;;3.38;2.13;;;;;;;28.93;28.09;101447.34;4970661;28;20585;-68